sensor_id;sensor_type;location;lat;lon;timestamp;pressure;altitude;pressure_sealevel;temperature
15701;BMP180;7950;42.744;23.174;2022-07-06T00:01:50;94429.00;;;20.65
15701;BMP180;7950;42.744;23.174;2022-07-06T00:04:19;94430.72;;;20.61
15701;BMP180;7950;42.744;23.174;2022-07-06T00:06:52;94426.66;;;20.63
15701;BMP180;7950;42.744;23.174;2022-07-06T00:09:21;94430.22;;;20.59
15701;BMP180;7950;42.744;23.174;2022-07-06T00:11:50;94435.25;;;20.52
15701;BMP180;7950;42.744;23.174;2022-07-06T00:14:19;94433.81;;;20.46
15701;BMP180;7950;42.744;23.174;2022-07-06T00:16:49;94433.81;;;20.46
15701;BMP180;7950;42.744;23.174;2022-07-06T00:19:18;94424.41;;;20.40
15701;BMP180;7950;42.744;23.174;2022-07-06T00:21:47;94421.75;;;20.40
15701;BMP180;7950;42.744;23.174;2022-07-06T00:24:18;94413.13;;;20.43
15701;BMP180;7950;42.744;23.174;2022-07-06T00:26:48;94420.94;;;20.39
15701;BMP180;7950;42.744;23.174;2022-07-06T00:29:17;94418.13;;;20.36
15701;BMP180;7950;42.744;23.174;2022-07-06T00:31:46;94430.84;;;20.39
15701;BMP180;7950;42.744;23.174;2022-07-06T00:34:15;94421.44;;;20.41
15701;BMP180;7950;42.744;23.174;2022-07-06T00:36:44;94422.81;;;20.30
15701;BMP180;7950;42.744;23.174;2022-07-06T00:39:13;94420.91;;;20.22
15701;BMP180;7950;42.744;23.174;2022-07-06T00:41:44;94430.44;;;20.15
15701;BMP180;7950;42.744;23.174;2022-07-06T00:44:13;94431.88;;;20.21
15701;BMP180;7950;42.744;23.174;2022-07-06T00:46:42;94428.13;;;20.30
15701;BMP180;7950;42.744;23.174;2022-07-06T00:49:12;94417.63;;;20.34
15701;BMP180;7950;42.744;23.174;2022-07-06T00:51:55;94417.63;;;20.34
15701;BMP180;7950;42.744;23.174;2022-07-06T00:54:26;94407.91;;;20.21
15701;BMP180;7950;42.744;23.174;2022-07-06T00:56:57;94404.59;;;20.15
15701;BMP180;7950;42.744;23.174;2022-07-06T00:59:28;94401.28;;;20.10
15701;BMP180;7950;42.744;23.174;2022-07-06T01:01:58;94410.84;;;20.11
15701;BMP180;7950;42.744;23.174;2022-07-06T01:04:27;94405.03;;;20.09
15701;BMP180;7950;42.744;23.174;2022-07-06T01:06:57;94402.97;;;20.06
15701;BMP180;7950;42.744;23.174;2022-07-06T01:09:27;94410.94;;;20.06
15701;BMP180;7950;42.744;23.174;2022-07-06T01:11:58;94417.84;;;20.07
15701;BMP180;7950;42.744;23.174;2022-07-06T01:14:28;94407.41;;;20.10
15701;BMP180;7950;42.744;23.174;2022-07-06T01:16:57;94410.53;;;20.12
15701;BMP180;7950;42.744;23.174;2022-07-06T01:19:26;94412.44;;;20.12
15701;BMP180;7950;42.744;23.174;2022-07-06T01:21:57;94415.09;;;20.12
15701;BMP180;7950;42.744;23.174;2022-07-06T01:24:26;94403.81;;;20.15
15701;BMP180;7950;42.744;23.174;2022-07-06T01:26:55;94399.13;;;20.12
15701;BMP180;7950;42.744;23.174;2022-07-06T01:29:24;94400.28;;;20.06
15701;BMP180;7950;42.744;23.174;2022-07-06T01:31:53;94409.56;;;20.08
15701;BMP180;7950;42.744;23.174;2022-07-06T01:34:23;94395.13;;;20.01
15701;BMP180;7950;42.744;23.174;2022-07-06T01:36:52;94398.06;;;19.99
15701;BMP180;7950;42.744;23.174;2022-07-06T01:39:23;94399.22;;;19.68
15701;BMP180;7950;42.744;23.174;2022-07-06T01:41:52;94392.94;;;19.64
15701;BMP180;7950;42.744;23.174;2022-07-06T01:44:21;94394.09;;;19.49
15701;BMP180;7950;42.744;23.174;2022-07-06T01:46:50;94395.88;;;19.32
15701;BMP180;7950;42.744;23.174;2022-07-06T01:49:19;94397.47;;;19.33
15701;BMP180;7950;42.744;23.174;2022-07-06T01:51:48;94392.91;;;19.33
15701;BMP180;7950;42.744;23.174;2022-07-06T01:54:17;94389.34;;;19.38
15701;BMP180;7950;42.744;23.174;2022-07-06T01:56:48;94382.34;;;19.42
15701;BMP180;7950;42.744;23.174;2022-07-06T01:59:17;94392.25;;;19.28
15701;BMP180;7950;42.744;23.174;2022-07-06T02:01:46;94395.84;;;19.10
15701;BMP180;7950;42.744;23.174;2022-07-06T02:04:15;94390.44;;;19.15
15701;BMP180;7950;42.744;23.174;2022-07-06T02:06:45;94400.44;;;19.18
15701;BMP180;7950;42.744;23.174;2022-07-06T02:09:15;94396.47;;;19.07
15701;BMP180;7950;42.744;23.174;2022-07-06T02:11:44;94394.41;;;19.04
15701;BMP180;7950;42.744;23.174;2022-07-06T02:14:15;94398.00;;;18.99
15701;BMP180;7950;42.744;23.174;2022-07-06T02:16:44;94393.88;;;18.93
15701;BMP180;7950;42.744;23.174;2022-07-06T02:19:13;94400.94;;;18.98
15701;BMP180;7950;42.744;23.174;2022-07-06T02:21:42;94402.75;;;18.89
15701;BMP180;7950;42.744;23.174;2022-07-06T02:24:11;94397.78;;;18.96
15701;BMP180;7950;42.744;23.174;2022-07-06T02:26:40;94400.56;;;18.91
15701;BMP180;7950;42.744;23.174;2022-07-06T02:29:09;94393.41;;;18.91
15701;BMP180;7950;42.744;23.174;2022-07-06T02:31:40;94401.09;;;18.79
15701;BMP180;7950;42.744;23.174;2022-07-06T02:34:09;94393.59;;;18.81
15701;BMP180;7950;42.744;23.174;2022-07-06T02:36:38;94393.59;;;18.81
15701;BMP180;7950;42.744;23.174;2022-07-06T02:39:07;94389.38;;;18.80
15701;BMP180;7950;42.744;23.174;2022-07-06T02:41:36;94393.50;;;18.64
15701;BMP180;7950;42.744;23.174;2022-07-06T02:44:05;94392.81;;;18.59
15701;BMP180;7950;42.744;23.174;2022-07-06T02:46:34;94390.50;;;18.66
15701;BMP180;7950;42.744;23.174;2022-07-06T02:49:05;94392.00;;;18.58
15701;BMP180;7950;42.744;23.174;2022-07-06T02:51:34;94395.16;;;18.60
15701;BMP180;7950;42.744;23.174;2022-07-06T02:54:03;94390.38;;;18.49
15701;BMP180;7950;42.744;23.174;2022-07-06T02:56:32;94389.59;;;18.35
15701;BMP180;7950;42.744;23.174;2022-07-06T02:59:01;94393.03;;;18.49
15701;BMP180;7950;42.744;23.174;2022-07-06T03:01:30;94383.28;;;18.31
15701;BMP180;7950;42.744;23.174;2022-07-06T03:03:59;94386.25;;;18.43
15701;BMP180;7950;42.744;23.174;2022-07-06T03:06:29;94399.63;;;18.38
15701;BMP180;7950;42.744;23.174;2022-07-06T03:08:58;94395.19;;;18.47
15701;BMP180;7950;42.744;23.174;2022-07-06T03:11:28;94398.53;;;18.52
15701;BMP180;7950;42.744;23.174;2022-07-06T03:13:57;94404.53;;;18.58
15701;BMP180;7950;42.744;23.174;2022-07-06T03:16:26;94405.81;;;18.47
15701;BMP180;7950;42.744;23.174;2022-07-06T03:18:55;94401.47;;;18.51
15701;BMP180;7950;42.744;23.174;2022-07-06T03:21:24;94404.44;;;18.49
15701;BMP180;7950;42.744;23.174;2022-07-06T03:23:55;94417.41;;;18.51
15701;BMP180;7950;42.744;23.174;2022-07-06T03:26:24;94409.03;;;18.57
15701;BMP180;7950;42.744;23.174;2022-07-06T03:28:53;94421.53;;;18.57
15701;BMP180;7950;42.744;23.174;2022-07-06T03:31:22;94416.91;;;18.62
15701;BMP180;7950;42.744;23.174;2022-07-06T03:33:51;94426.66;;;18.67
15701;BMP180;7950;42.744;23.174;2022-07-06T03:36:20;94419.94;;;18.69
15701;BMP180;7950;42.744;23.174;2022-07-06T03:38:49;94422.31;;;18.71
15701;BMP180;7950;42.744;23.174;2022-07-06T03:41:20;94433.28;;;18.78
15701;BMP180;7950;42.744;23.174;2022-07-06T03:43:49;94426.69;;;18.89
15701;BMP180;7950;42.744;23.174;2022-07-06T03:46:18;94439.44;;;19.00
15701;BMP180;7950;42.744;23.174;2022-07-06T03:48:47;94434.75;;;19.06
15701;BMP180;7950;42.744;23.174;2022-07-06T03:51:16;94432.06;;;19.19
15701;BMP180;7950;42.744;23.174;2022-07-06T03:53:45;94431.38;;;19.27
15701;BMP180;7950;42.744;23.174;2022-07-06T03:56:14;94439.09;;;19.37
15701;BMP180;7950;42.744;23.174;2022-07-06T03:59:02;94444.50;;;19.46
15701;BMP180;7950;42.744;23.174;2022-07-06T04:01:31;94445.63;;;19.53
15701;BMP180;7950;42.744;23.174;2022-07-06T04:04:00;94440.03;;;19.63
15701;BMP180;7950;42.744;23.174;2022-07-06T04:06:29;94437.78;;;19.79
15701;BMP180;7950;42.744;23.174;2022-07-06T04:08:58;94438.00;;;19.91
15701;BMP180;7950;42.744;23.174;2022-07-06T04:11:27;94443.66;;;19.98
15701;BMP180;7950;42.744;23.174;2022-07-06T04:13:56;94449.03;;;20.06
15701;BMP180;7950;42.744;23.174;2022-07-06T04:16:27;94451.75;;;20.15
15701;BMP180;7950;42.744;23.174;2022-07-06T04:18:56;94447.53;;;20.22
15701;BMP180;7950;42.744;23.174;2022-07-06T04:21:25;94454.16;;;20.33
15701;BMP180;7950;42.744;23.174;2022-07-06T04:24:19;94469.69;;;20.40
15701;BMP180;7950;42.744;23.174;2022-07-06T04:26:48;94463.41;;;20.36
15701;BMP180;7950;42.744;23.174;2022-07-06T04:29:16;94468.94;;;20.48
15701;BMP180;7950;42.744;23.174;2022-07-06T04:31:47;94478.00;;;20.47
15701;BMP180;7950;42.744;23.174;2022-07-06T04:35:00;94481.47;;;20.56
15701;BMP180;7950;42.744;23.174;2022-07-06T04:37:29;94484.84;;;20.70
15701;BMP180;7950;42.744;23.174;2022-07-06T04:39:58;94487.84;;;20.85
15701;BMP180;7950;42.744;23.174;2022-07-06T04:42:27;94484.22;;;20.90
15701;BMP180;7950;42.744;23.174;2022-07-06T04:44:56;94491.16;;;20.91
15701;BMP180;7950;42.744;23.174;2022-07-06T04:47:26;94485.22;;;20.94
15701;BMP180;7950;42.744;23.174;2022-07-06T04:49:55;94494.13;;;20.89
15701;BMP180;7950;42.744;23.174;2022-07-06T04:52:24;94496.91;;;20.67
15701;BMP180;7950;42.744;23.174;2022-07-06T04:54:54;94494.34;;;20.45
15701;BMP180;7950;42.744;23.174;2022-07-06T04:57:23;94497.22;;;20.27
15701;BMP180;7950;42.744;23.174;2022-07-06T04:59:53;94494.22;;;20.20
15701;BMP180;7950;42.744;23.174;2022-07-06T05:02:22;94502.41;;;20.32
15701;BMP180;7950;42.744;23.174;2022-07-06T05:04:52;94497.69;;;20.29
15701;BMP180;7950;42.744;23.174;2022-07-06T05:07:22;94511.38;;;20.36
15701;BMP180;7950;42.744;23.174;2022-07-06T05:09:55;94502.13;;;20.42
15701;BMP180;7950;42.744;23.174;2022-07-06T05:12:24;94511.09;;;20.46
15701;BMP180;7950;42.744;23.174;2022-07-06T05:14:53;94512.09;;;20.58
15701;BMP180;7950;42.744;23.174;2022-07-06T05:17:22;94520.09;;;20.67
15701;BMP180;7950;42.744;23.174;2022-07-06T05:19:57;94500.03;;;20.78
15701;BMP180;7950;42.744;23.174;2022-07-06T05:22:26;94508.91;;;20.95
15701;BMP180;7950;42.744;23.174;2022-07-06T05:24:55;94504.03;;;20.97
15701;BMP180;7950;42.744;23.174;2022-07-06T05:27:24;94509.22;;;21.11
15701;BMP180;7950;42.744;23.174;2022-07-06T05:29:53;94515.50;;;21.15
15701;BMP180;7950;42.744;23.174;2022-07-06T05:32:22;94516.78;;;21.17
15701;BMP180;7950;42.744;23.174;2022-07-06T05:34:51;94513.94;;;21.22
15701;BMP180;7950;42.744;23.174;2022-07-06T05:37:21;94521.31;;;21.17
15701;BMP180;7950;42.744;23.174;2022-07-06T05:39:50;94518.50;;;21.22
15701;BMP180;7950;42.744;23.174;2022-07-06T05:42:19;94531.56;;;21.49
15701;BMP180;7950;42.744;23.174;2022-07-06T05:44:48;94524.44;;;21.53
15701;BMP180;7950;42.744;23.174;2022-07-06T05:47:17;94540.47;;;21.53
15701;BMP180;7950;42.744;23.174;2022-07-06T05:50:04;94530.59;;;21.53
15701;BMP180;7950;42.744;23.174;2022-07-06T05:52:55;94531.38;;;21.54
15701;BMP180;7950;42.744;23.174;2022-07-06T05:55:24;94539.84;;;21.56
15701;BMP180;7950;42.744;23.174;2022-07-06T05:57:54;94529.47;;;21.54
15701;BMP180;7950;42.744;23.174;2022-07-06T06:00:24;94538.28;;;21.55
15701;BMP180;7950;42.744;23.174;2022-07-06T06:02:54;94535.00;;;21.58
15701;BMP180;7950;42.744;23.174;2022-07-06T06:05:25;94532.34;;;21.58
15701;BMP180;7950;42.744;23.174;2022-07-06T06:07:56;94529.31;;;21.59
15701;BMP180;7950;42.744;23.174;2022-07-06T06:10:25;94523.34;;;21.62
15701;BMP180;7950;42.744;23.174;2022-07-06T06:12:54;94527.44;;;21.68
15701;BMP180;7950;42.744;23.174;2022-07-06T06:15:23;94530.75;;;21.74
15701;BMP180;7950;42.744;23.174;2022-07-06T06:17:52;94528.09;;;21.82
15701;BMP180;7950;42.744;23.174;2022-07-06T06:20:21;94531.06;;;21.98
15701;BMP180;7950;42.744;23.174;2022-07-06T06:22:52;94533.09;;;21.92
15701;BMP180;7950;42.744;23.174;2022-07-06T06:25:33;94531.84;;;21.90
15701;BMP180;7950;42.744;23.174;2022-07-06T06:28:05;94531.69;;;21.95
15701;BMP180;7950;42.744;23.174;2022-07-06T06:30:35;94517.78;;;22.10
15701;BMP180;7950;42.744;23.174;2022-07-06T06:33:06;94519.03;;;22.12
15701;BMP180;7950;42.744;23.174;2022-07-06T06:35:36;94520.28;;;22.15
15701;BMP180;7950;42.744;23.174;2022-07-06T06:38:06;94519.88;;;22.04
15701;BMP180;7950;42.744;23.174;2022-07-06T06:40:37;94518.59;;;22.10
15701;BMP180;7950;42.744;23.174;2022-07-06T06:43:06;94522.22;;;22.06
15701;BMP180;7950;42.744;23.174;2022-07-06T06:45:35;94522.84;;;22.03
15701;BMP180;7950;42.744;23.174;2022-07-06T06:48:07;94520.19;;;22.03
15701;BMP180;7950;42.744;23.174;2022-07-06T06:50:43;94521.78;;;21.87
15701;BMP180;7950;42.744;23.174;2022-07-06T06:53:13;94511.28;;;21.82
15701;BMP180;7950;42.744;23.174;2022-07-06T06:55:44;94513.78;;;21.87
15701;BMP180;7950;42.744;23.174;2022-07-06T06:58:15;94512.97;;;21.95
15701;BMP180;7950;42.744;23.174;2022-07-06T07:00:43;94504.50;;;21.84
15701;BMP180;7950;42.744;23.174;2022-07-06T07:03:13;94508.91;;;21.89
15701;BMP180;7950;42.744;23.174;2022-07-06T07:05:42;94507.00;;;21.98
15701;BMP180;7950;42.744;23.174;2022-07-06T07:08:11;94520.38;;;21.98
15701;BMP180;7950;42.744;23.174;2022-07-06T07:10:40;94517.88;;;21.93
15701;BMP180;7950;42.744;23.174;2022-07-06T07:13:11;94515.03;;;21.98
15701;BMP180;7950;42.744;23.174;2022-07-06T07:15:40;94519.72;;;22.01
15701;BMP180;7950;42.744;23.174;2022-07-06T07:18:09;94518.09;;;22.17
15701;BMP180;7950;42.744;23.174;2022-07-06T07:20:42;94514.47;;;22.21
15701;BMP180;7950;42.744;23.174;2022-07-06T07:23:11;94512.44;;;22.18
15701;BMP180;7950;42.744;23.174;2022-07-06T07:25:41;94514.03;;;22.11
15701;BMP180;7950;42.744;23.174;2022-07-06T07:28:11;94501.72;;;22.27
15701;BMP180;7950;42.744;23.174;2022-07-06T07:30:40;94498.06;;;22.40
15701;BMP180;7950;42.744;23.174;2022-07-06T07:33:09;94505.72;;;22.50
15701;BMP180;7950;42.744;23.174;2022-07-06T07:35:39;94509.16;;;22.59
15701;BMP180;7950;42.744;23.174;2022-07-06T07:38:08;94509.72;;;22.73
15701;BMP180;7950;42.744;23.174;2022-07-06T07:40:37;94506.38;;;22.84
15701;BMP180;7950;42.744;23.174;2022-07-06T07:43:06;94508.84;;;22.89
15701;BMP180;7950;42.744;23.174;2022-07-06T07:45:37;94506.50;;;23.08
15701;BMP180;7950;42.744;23.174;2022-07-06T07:48:06;94503.78;;;23.17
15701;BMP180;7950;42.744;23.174;2022-07-06T07:50:36;94501.72;;;23.23
15701;BMP180;7950;42.744;23.174;2022-07-06T07:53:04;94509.31;;;23.12
15701;BMP180;7950;42.744;23.174;2022-07-06T07:55:34;94512.91;;;23.16
15701;BMP180;7950;42.744;23.174;2022-07-06T07:58:08;94517.72;;;23.31
15701;BMP180;7950;42.744;23.174;2022-07-06T08:00:39;94496.91;;;23.37
15701;BMP180;7950;42.744;23.174;2022-07-06T08:03:07;94502.50;;;23.44
15701;BMP180;7950;42.744;23.174;2022-07-06T08:05:37;94501.84;;;23.47
15701;BMP180;7950;42.744;23.174;2022-07-06T08:08:06;94505.38;;;23.59
15701;BMP180;7950;42.744;23.174;2022-07-06T08:10:35;94495.16;;;23.73
15701;BMP180;7950;42.744;23.174;2022-07-06T08:13:24;94511.56;;;23.92
15701;BMP180;7950;42.744;23.174;2022-07-06T08:15:59;94508.13;;;24.04
15701;BMP180;7950;42.744;23.174;2022-07-06T08:18:28;94504.38;;;24.17
15701;BMP180;7950;42.744;23.174;2022-07-06T08:20:58;94510.09;;;24.39
15701;BMP180;7950;42.744;23.174;2022-07-06T08:23:47;94505.88;;;24.62
15701;BMP180;7950;42.744;23.174;2022-07-06T08:26:17;94499.75;;;24.62
15701;BMP180;7950;42.744;23.174;2022-07-06T08:28:46;94509.13;;;24.68
15701;BMP180;7950;42.744;23.174;2022-07-06T08:31:17;94503.44;;;24.81
15701;BMP180;7950;42.744;23.174;2022-07-06T08:34:06;94497.84;;;24.98
15701;BMP180;7950;42.744;23.174;2022-07-06T08:36:35;94498.63;;;24.75
15701;BMP180;7950;42.744;23.174;2022-07-06T08:39:04;94500.97;;;24.64
15701;BMP180;7950;42.744;23.174;2022-07-06T08:41:33;94505.22;;;24.89
15701;BMP180;7950;42.744;23.174;2022-07-06T08:44:04;94503.66;;;24.88
15701;BMP180;7950;42.744;23.174;2022-07-06T08:46:37;94502.09;;;24.87
15701;BMP180;7950;42.744;23.174;2022-07-06T08:49:07;94510.47;;;24.98
15701;BMP180;7950;42.744;23.174;2022-07-06T08:51:37;94502.19;;;25.15
15701;BMP180;7950;42.744;23.174;2022-07-06T08:54:07;94501.81;;;25.28
15701;BMP180;7950;42.744;23.174;2022-07-06T08:56:36;94508.41;;;25.31
15701;BMP180;7950;42.744;23.174;2022-07-06T08:59:15;94508.63;;;25.50
15701;BMP180;7950;42.744;23.174;2022-07-06T09:01:46;94499.56;;;25.42
15701;BMP180;7950;42.744;23.174;2022-07-06T09:04:18;94509.28;;;25.47
15701;BMP180;7950;42.744;23.174;2022-07-06T09:06:50;94509.22;;;25.71
15701;BMP180;7950;42.744;23.174;2022-07-06T09:09:21;94506.22;;;25.60
15701;BMP180;7950;42.744;23.174;2022-07-06T09:11:51;94502.38;;;25.73
15701;BMP180;7950;42.744;23.174;2022-07-06T09:14:20;94507.84;;;25.77
15701;BMP180;7950;42.744;23.174;2022-07-06T09:17:16;94507.94;;;25.80
15701;BMP180;7950;42.744;23.174;2022-07-06T09:19:46;94508.63;;;25.77
15701;BMP180;7950;42.744;23.174;2022-07-06T09:22:26;94499.63;;;25.85
15701;BMP180;7950;42.744;23.174;2022-07-06T09:25:04;94499.63;;;25.85
15701;BMP180;7950;42.744;23.174;2022-07-06T09:27:37;94506.56;;;25.86
15701;BMP180;7950;42.744;23.174;2022-07-06T09:30:09;94510.47;;;25.61
15701;BMP180;7950;42.744;23.174;2022-07-06T09:32:41;94505.97;;;25.65
15701;BMP180;7950;42.744;23.174;2022-07-06T09:35:21;94500.72;;;25.57
15701;BMP180;7950;42.744;23.174;2022-07-06T09:38:02;94508.13;;;25.60
15701;BMP180;7950;42.744;23.174;2022-07-06T09:40:33;94504.25;;;25.45
15701;BMP180;7950;42.744;23.174;2022-07-06T09:43:15;94495.78;;;25.71
15701;BMP180;7950;42.744;23.174;2022-07-06T09:45:48;94487.06;;;25.89
15701;BMP180;7950;42.744;23.174;2022-07-06T09:48:20;94490.41;;;25.71
15701;BMP180;7950;42.744;23.174;2022-07-06T09:50:53;94486.94;;;25.70
15701;BMP180;7950;42.744;23.174;2022-07-06T09:53:24;94482.72;;;25.85
15701;BMP180;7950;42.744;23.174;2022-07-06T09:55:56;94482.81;;;25.88
15701;BMP180;7950;42.744;23.174;2022-07-06T09:58:25;94491.34;;;25.63
15701;BMP180;7950;42.744;23.174;2022-07-06T10:01:26;94488.81;;;25.70
15701;BMP180;7950;42.744;23.174;2022-07-06T10:03:58;94484.88;;;25.52
15701;BMP180;7950;42.744;23.174;2022-07-06T10:06:27;94493.38;;;25.54
15701;BMP180;7950;42.744;23.174;2022-07-06T10:08:58;94489.41;;;25.36
15701;BMP180;7950;42.744;23.174;2022-07-06T10:11:29;94483.38;;;25.03
15701;BMP180;7950;42.744;23.174;2022-07-06T10:14:00;94479.44;;;25.24
15701;BMP180;7950;42.744;23.174;2022-07-06T10:16:30;94477.59;;;25.52
15701;BMP180;7950;42.744;23.174;2022-07-06T10:19:27;94463.38;;;25.79
15701;BMP180;7950;42.744;23.174;2022-07-06T10:21:58;94468.84;;;26.10
15701;BMP180;7950;42.744;23.174;2022-07-06T10:24:29;94463.72;;;26.05
15701;BMP180;7950;42.744;23.174;2022-07-06T10:27:02;94472.13;;;26.19
15701;BMP180;7950;42.744;23.174;2022-07-06T10:29:31;94468.25;;;26.32
15701;BMP180;7950;42.744;23.174;2022-07-06T10:32:01;94463.81;;;26.24
15701;BMP180;7950;42.744;23.174;2022-07-06T10:34:33;94469.13;;;26.36
15701;BMP180;7950;42.744;23.174;2022-07-06T10:37:04;94458.34;;;26.52
15701;BMP180;7950;42.744;23.174;2022-07-06T10:39:34;94468.53;;;26.58
15701;BMP180;7950;42.744;23.174;2022-07-06T10:42:44;94472.75;;;26.44
15701;BMP180;7950;42.744;23.174;2022-07-06T10:45:15;94456.22;;;26.57
15701;BMP180;7950;42.744;23.174;2022-07-06T10:47:46;94465.91;;;26.62
15701;BMP180;7950;42.744;23.174;2022-07-06T10:50:16;94461.31;;;26.78
15701;BMP180;7950;42.744;23.174;2022-07-06T10:52:58;94458.28;;;26.79
15701;BMP180;7950;42.744;23.174;2022-07-06T10:55:32;94458.63;;;26.78
15701;BMP180;7950;42.744;23.174;2022-07-06T10:58:02;94465.13;;;26.92
15701;BMP180;7950;42.744;23.174;2022-07-06T11:00:49;94460.84;;;26.91
15701;BMP180;7950;42.744;23.174;2022-07-06T11:03:42;94459.91;;;26.84
15701;BMP180;7950;42.744;23.174;2022-07-06T11:06:39;94456.00;;;26.81
15701;BMP180;7950;42.744;23.174;2022-07-06T11:09:09;94468.41;;;26.86
15701;BMP180;7950;42.744;23.174;2022-07-06T11:11:41;94458.75;;;26.85
15701;BMP180;7950;42.744;23.174;2022-07-06T11:14:15;94468.06;;;26.72
15701;BMP180;7950;42.744;23.174;2022-07-06T11:17:01;94450.97;;;26.64
15701;BMP180;7950;42.744;23.174;2022-07-06T11:19:31;94449.06;;;26.80
15701;BMP180;7950;42.744;23.174;2022-07-06T11:22:09;94449.53;;;27.01
15701;BMP180;7950;42.744;23.174;2022-07-06T11:24:41;94440.31;;;27.02
15701;BMP180;7950;42.744;23.174;2022-07-06T11:27:10;94449.38;;;26.94
15701;BMP180;7950;42.744;23.174;2022-07-06T11:29:39;94447.75;;;26.90
15701;BMP180;7950;42.744;23.174;2022-07-06T11:32:09;94446.97;;;26.89
15701;BMP180;7950;42.744;23.174;2022-07-06T11:34:40;94440.88;;;26.92
15701;BMP180;7950;42.744;23.174;2022-07-06T11:37:14;94428.66;;;26.79
15701;BMP180;7950;42.744;23.174;2022-07-06T11:39:46;94440.16;;;26.95
15701;BMP180;7950;42.744;23.174;2022-07-06T11:42:17;94434.81;;;27.14
15701;BMP180;7950;42.744;23.174;2022-07-06T11:44:47;94419.19;;;27.04
15701;BMP180;7950;42.744;23.174;2022-07-06T11:47:17;94419.06;;;27.16
15701;BMP180;7950;42.744;23.174;2022-07-06T11:49:51;94416.16;;;27.06
15701;BMP180;7950;42.744;23.174;2022-07-06T11:52:22;94419.19;;;27.04
15701;BMP180;7950;42.744;23.174;2022-07-06T11:54:58;94422.72;;;27.24
15701;BMP180;7950;42.744;23.174;2022-07-06T11:57:32;94415.97;;;27.14
15701;BMP180;7950;42.744;23.174;2022-07-06T12:00:01;94423.47;;;27.05
15701;BMP180;7950;42.744;23.174;2022-07-06T12:02:31;94413.69;;;27.16
15701;BMP180;7950;42.744;23.174;2022-07-06T12:05:00;94404.75;;;27.12
15701;BMP180;7950;42.744;23.174;2022-07-06T12:08:04;94419.41;;;27.30
15701;BMP180;7950;42.744;23.174;2022-07-06T12:10:34;94414.16;;;27.37
15701;BMP180;7950;42.744;23.174;2022-07-06T12:13:05;94407.41;;;27.47
15701;BMP180;7950;42.744;23.174;2022-07-06T12:15:34;94409.91;;;27.55
15701;BMP180;7950;42.744;23.174;2022-07-06T12:18:03;94409.13;;;27.36
15701;BMP180;7950;42.744;23.174;2022-07-06T12:20:33;94414.00;;;27.30
15701;BMP180;7950;42.744;23.174;2022-07-06T12:23:05;94420.69;;;27.02
15701;BMP180;7950;42.744;23.174;2022-07-06T12:25:36;94404.47;;;27.17
15701;BMP180;7950;42.744;23.174;2022-07-06T12:28:05;94408.84;;;27.22
15701;BMP180;7950;42.744;23.174;2022-07-06T12:30:45;94406.03;;;27.18
15701;BMP180;7950;42.744;23.174;2022-07-06T12:33:15;94409.88;;;27.17
15701;BMP180;7950;42.744;23.174;2022-07-06T12:35:45;94395.69;;;27.01
15701;BMP180;7950;42.744;23.174;2022-07-06T12:38:24;94400.91;;;26.94
15701;BMP180;7950;42.744;23.174;2022-07-06T12:40:53;94396.72;;;26.78
15701;BMP180;7950;42.744;23.174;2022-07-06T12:43:39;94398.38;;;27.01
15701;BMP180;7950;42.744;23.174;2022-07-06T12:46:28;94392.09;;;27.13
15701;BMP180;7950;42.744;23.174;2022-07-06T12:49:00;94384.06;;;27.16
15701;BMP180;7950;42.744;23.174;2022-07-06T12:51:54;94389.28;;;27.09
15701;BMP180;7950;42.744;23.174;2022-07-06T12:54:29;94393.88;;;27.24
15701;BMP180;7950;42.744;23.174;2022-07-06T12:57:21;94379.84;;;27.34
15701;BMP180;7950;42.744;23.174;2022-07-06T12:59:57;94379.00;;;27.30
15701;BMP180;7950;42.744;23.174;2022-07-06T13:02:32;94374.81;;;27.33
15701;BMP180;7950;42.744;23.174;2022-07-06T13:05:25;94370.06;;;27.45
15701;BMP180;7950;42.744;23.174;2022-07-06T13:07:58;94374.09;;;27.36
15701;BMP180;7950;42.744;23.174;2022-07-06T13:10:29;94372.47;;;27.31
15701;BMP180;7950;42.744;23.174;2022-07-06T13:13:01;94369.34;;;27.48
15701;BMP180;7950;42.744;23.174;2022-07-06T13:15:30;94369.25;;;27.64
15701;BMP180;7950;42.744;23.174;2022-07-06T13:17:58;94366.63;;;27.67
15701;BMP180;7950;42.744;23.174;2022-07-06T13:20:27;94361.34;;;27.74
15701;BMP180;7950;42.744;23.174;2022-07-06T13:22:56;94361.41;;;27.55
15701;BMP180;7950;42.744;23.174;2022-07-06T13:25:25;94362.81;;;27.49
15701;BMP180;7950;42.744;23.174;2022-07-06T13:27:56;94363.19;;;27.48
15701;BMP180;7950;42.744;23.174;2022-07-06T13:30:25;94356.22;;;27.47
15701;BMP180;7950;42.744;23.174;2022-07-06T13:32:53;94355.91;;;27.29
15701;BMP180;7950;42.744;23.174;2022-07-06T13:35:24;94355.78;;;27.07
15701;BMP180;7950;42.744;23.174;2022-07-06T13:37:53;94355.59;;;27.15
15701;BMP180;7950;42.744;23.174;2022-07-06T13:40:22;94357.56;;;27.18
15701;BMP180;7950;42.744;23.174;2022-07-06T13:42:52;94350.91;;;27.31
15701;BMP180;7950;42.744;23.174;2022-07-06T13:45:24;94347.78;;;27.48
15701;BMP180;7950;42.744;23.174;2022-07-06T13:47:53;94353.16;;;27.48
15701;BMP180;7950;42.744;23.174;2022-07-06T13:50:22;94353.34;;;27.36
15701;BMP180;7950;42.744;23.174;2022-07-06T13:52:53;94344.22;;;27.22
15701;BMP180;7950;42.744;23.174;2022-07-06T13:55:21;94361.31;;;27.14
15701;BMP180;7950;42.744;23.174;2022-07-06T13:57:50;94340.06;;;27.09
15701;BMP180;7950;42.744;23.174;2022-07-06T14:00:19;94344.16;;;27.03
15701;BMP180;7950;42.744;23.174;2022-07-06T14:02:50;94340.91;;;27.13
15701;BMP180;7950;42.744;23.174;2022-07-06T14:05:19;94341.13;;;27.04
15701;BMP180;7950;42.744;23.174;2022-07-06T14:07:48;94336.66;;;27.12
15701;BMP180;7950;42.744;23.174;2022-07-06T14:10:17;94343.00;;;27.19
15701;BMP180;7950;42.744;23.174;2022-07-06T14:12:49;94341.69;;;27.13
15701;BMP180;7950;42.744;23.174;2022-07-06T14:15:19;94342.53;;;27.17
15701;BMP180;7950;42.744;23.174;2022-07-06T14:17:50;94329.94;;;27.21
15701;BMP180;7950;42.744;23.174;2022-07-06T14:20:19;94335.47;;;27.28
15701;BMP180;7950;42.744;23.174;2022-07-06T14:22:48;94333.69;;;27.36
15701;BMP180;7950;42.744;23.174;2022-07-06T14:25:16;94334.50;;;27.36
15701;BMP180;7950;42.744;23.174;2022-07-06T14:27:45;94341.22;;;27.27
15701;BMP180;7950;42.744;23.174;2022-07-06T14:30:14;94328.25;;;27.32
15701;BMP180;7950;42.744;23.174;2022-07-06T14:32:43;94327.31;;;27.06
15701;BMP180;7950;42.744;23.174;2022-07-06T14:35:22;94335.31;;;26.83